Time;durP1;ratioP1;P1;durP2;ratioP2;P2;SDS_P1;SDS_P2;PMS_P1;PMS_P2;Temp;Humidity;BMP_temperature;BMP_pressure;BME280_temperature;BME280_humidity;BME280_pressure;Samples;Min_cycle;Max_cycle;Signal;HPM_P1;HPM_P2
2022/03/14 00:00:21;;;;;;;5.65;3.92;;;;;;;-1.71;72.69;101095.53;5028518;28;20330;-88
2022/03/14 00:02:53;;;;;;;7.18;4.43;;;;;;;-2.02;72.23;101030.03;5027806;28;20357;-89
2022/03/14 00:05:31;;;;;;;5.28;4.50;;;;;;;-1.41;71.87;101122.56;5028149;28;20392;-89
2022/03/14 00:08:06;;;;;;;6.60;4.78;;;;;;;-1.42;71.91;101125.94;5029629;28;20046;-89
2022/03/14 00:10:36;;;;;;;5.93;4.13;;;;;;;-1.34;71.32;101124.59;5032775;28;20232;-89
2022/03/14 00:13:09;;;;;;;8.57;5.95;;;;;;;-1.25;72.15;101134.38;5030559;28;20084;-90
2022/03/14 00:15:40;;;;;;;8.48;5.70;;;;;;;-1.19;71.59;101126.09;5027704;28;20109;-89
2022/03/14 00:18:13;;;;;;;6.55;4.75;;;;;;;-1.22;71.50;101123.38;5081992;28;20329;-90
2022/03/14 00:20:46;;;;;;;6.93;4.53;;;;;;;-1.25;71.83;101133.50;5087265;28;20562;-90
2022/03/14 00:23:18;;;;;;;5.88;4.28;;;;;;;-1.19;71.42;101129.53;5089868;28;20040;-91
2022/03/14 00:25:54;;;;;;;9.48;4.90;;;;;;;-1.08;71.04;101091.53;5090728;28;20118;-90
2022/03/14 00:28:25;;;;;;;9.95;5.03;;;;;;;-0.41;71.11;101128.63;5089266;28;20052;-89
2022/03/14 00:30:55;;;;;;;5.93;4.20;;;;;;;-0.25;68.71;101115.56;5091999;28;20107;-91
2022/03/14 00:33:26;;;;;;;6.22;3.63;;;;;;;-0.30;68.55;101127.34;5094563;28;20040;-90
2022/03/14 00:36:01;;;;;;;8.00;3.90;;;;;;;-0.26;68.61;101121.53;5094903;28;20051;-90
2022/03/14 00:38:32;;;;;;;6.30;3.70;;;;;;;-0.30;68.35;101099.09;5096904;28;20071;-91
2022/03/14 00:41:03;;;;;;;6.82;4.65;;;;;;;-0.09;68.00;101125.66;5097389;28;20058;-90
2022/03/14 00:43:41;;;;;;;4.95;3.45;;;;;;;0.02;67.51;101115.81;5098322;28;20310;-90
2022/03/14 00:46:12;;;;;;;4.68;3.67;;;;;;;-0.57;66.67;100989.34;5099375;28;20052;-89
2022/03/14 00:48:43;;;;;;;9.35;3.90;;;;;;;-0.05;67.26;101062.44;5105171;28;20107;-89
2022/03/14 00:51:19;;;;;;;6.85;3.20;;;;;;;0.31;66.88;101109.25;5104968;28;20236;-88
2022/03/14 00:53:49;;;;;;;4.78;3.47;;;;;;;-0.02;67.08;101104.56;5084977;28;20083;-87
2022/03/14 00:56:21;;;;;;;4.20;3.47;;;;;;;-0.05;68.23;101100.97;5084842;28;20098;-89
2022/03/14 00:58:51;;;;;;;5.53;3.83;;;;;;;-0.26;68.13;101099.28;5093659;28;20086;-89
2022/03/14 01:01:22;;;;;;;5.95;3.55;;;;;;;0.09;67.63;101111.81;5092605;28;20052;-86
2022/03/14 01:03:53;;;;;;;7.97;3.90;;;;;;;0.15;67.15;101101.75;5100748;28;20044;-78
2022/03/14 01:06:26;;;;;;;6.38;3.70;;;;;;;-0.08;66.98;101106.00;5096388;28;20044;-78
2022/03/14 01:08:56;;;;;;;5.05;3.58;;;;;;;0.05;66.78;101109.91;5084435;28;20075;-78
2022/03/14 01:11:27;;;;;;;7.70;4.18;;;;;;;-0.03;67.05;101107.91;5084634;28;20079;-78
2022/03/14 01:13:58;;;;;;;5.60;3.50;;;;;;;0.14;67.07;101105.16;5084850;28;20298;-78
2022/03/14 01:16:28;;;;;;;4.93;2.97;;;;;;;0.04;67.23;101103.03;5084705;28;20050;-78
2022/03/14 01:19:00;;;;;;;5.13;3.08;;;;;;;0.02;67.98;101112.38;5084507;28;20240;-78
2022/03/14 01:21:32;;;;;;;4.38;3.22;;;;;;;0.21;67.18;101091.72;5084404;28;20059;-78
2022/03/14 01:24:03;;;;;;;5.30;3.20;;;;;;;0.51;66.00;101091.16;5084330;28;20076;-79
2022/03/14 01:26:34;;;;;;;6.93;3.70;;;;;;;0.17;66.67;101095.00;5084311;28;20045;-79
2022/03/14 01:29:06;;;;;;;8.30;3.20;;;;;;;-0.08;66.82;101076.03;5084239;28;20067;-79
2022/03/14 01:31:36;;;;;;;4.82;2.83;;;;;;;0.23;66.32;101090.09;5084329;28;20076;-79
2022/03/14 01:34:08;;;;;;;5.68;3.60;;;;;;;0.56;66.12;101077.63;5084035;28;20239;-79
2022/03/14 01:36:40;;;;;;;3.88;2.78;;;;;;;0.59;65.86;101088.03;5083955;28;20277;-79
2022/03/14 01:39:11;;;;;;;3.75;2.92;;;;;;;0.66;65.35;101065.13;5083765;28;20328;-79
2022/03/14 01:41:42;;;;;;;4.65;3.30;;;;;;;0.73;64.79;101073.13;5083635;28;20115;-79
2022/03/14 01:44:13;;;;;;;4.55;3.00;;;;;;;0.53;65.36;101063.81;5083828;28;20045;-79
2022/03/14 01:46:44;;;;;;;4.90;2.58;;;;;;;0.01;66.85;101072.97;5083866;28;20324;-79
2022/03/14 01:49:15;;;;;;;5.20;2.75;;;;;;;-0.08;66.89;101042.63;5083929;28;20080;-79
2022/03/14 01:51:47;;;;;;;3.40;2.60;;;;;;;0.19;67.56;101062.53;5083862;28;20056;-79
2022/03/14 01:54:18;;;;;;;3.35;2.35;;;;;;;0.06;67.06;101061.16;5083733;28;20051;-79
2022/03/14 01:56:49;;;;;;;3.60;2.80;;;;;;;0.04;67.28;101072.22;5083738;28;20348;-79
2022/03/14 01:59:21;;;;;;;3.25;2.47;;;;;;;0.13;66.98;101072.56;5083640;28;20104;-79
2022/03/14 02:01:52;;;;;;;3.75;2.80;;;;;;;0.19;66.95;101062.53;5083455;28;20048;-79
2022/03/14 02:04:23;;;;;;;5.65;2.78;;;;;;;0.15;67.01;101060.63;5083645;28;20075;-79
2022/03/14 02:06:57;;;;;;;4.60;2.88;;;;;;;0.17;66.96;101048.72;5083521;28;20076;-79
2022/03/14 02:09:28;;;;;;;6.00;3.60;;;;;;;0.28;67.31;101054.28;5083419;28;20351;-79
2022/03/14 02:12:08;;;;;;;4.88;3.63;;;;;;;0.30;66.75;101063.81;5083497;28;20116;-79
2022/03/14 02:14:41;;;;;;;6.18;3.08;;;;;;;0.24;67.05;101055.84;5083312;28;20378;-79
2022/03/14 02:17:13;;;;;;;3.47;2.80;;;;;;;0.19;67.48;101041.97;5083332;28;20059;-79
2022/03/14 02:19:45;;;;;;;3.97;3.08;;;;;;;0.24;67.04;101030.16;5083178;28;20051;-79
2022/03/14 02:22:17;;;;;;;9.70;3.00;;;;;;;0.30;66.99;101040.69;5083102;28;20383;-79
2022/03/14 02:24:49;;;;;;;5.47;2.65;;;;;;;0.31;66.51;101046.69;5083004;28;20317;-79
2022/03/14 02:27:20;;;;;;;3.75;2.75;;;;;;;0.38;67.40;101033.25;5083079;28;20289;-79
2022/03/14 02:29:51;;;;;;;5.95;2.83;;;;;;;0.58;66.03;101041.69;5083062;28;20108;-79
2022/03/14 02:32:21;;;;;;;2.95;2.60;;;;;;;0.41;66.19;101044.50;5083111;28;20045;-79
2022/03/14 02:34:52;;;;;;;3.30;2.50;;;;;;;0.24;66.99;101037.88;5082685;28;20106;-79
2022/03/14 02:37:24;;;;;;;4.22;2.33;;;;;;;-0.14;68.32;101046.69;5082932;28;20340;-79
2022/03/14 02:39:55;;;;;;;3.50;2.70;;;;;;;-0.25;68.37;101012.84;5082856;28;20053;-79
2022/03/14 02:42:26;;;;;;;4.32;2.40;;;;;;;-0.25;68.90;101039.44;5082697;28;20083;-79
2022/03/14 02:44:57;;;;;;;3.20;2.25;;;;;;;-0.22;68.95;101038.66;5082749;28;20052;-78
2022/03/14 02:47:27;;;;;;;5.32;2.65;;;;;;;0.30;68.49;101034.63;5082569;28;20084;-79
2022/03/14 02:49:58;;;;;;;3.72;2.60;;;;;;;0.25;67.20;101001.09;5082687;28;20535;-78
2022/03/14 02:52:30;;;;;;;3.17;2.30;;;;;;;0.64;67.31;101027.34;5082773;28;20111;-79
2022/03/14 02:55:01;;;;;;;6.15;2.25;;;;;;;0.08;66.92;100919.91;5082618;28;20055;-79
2022/03/14 02:57:32;;;;;;;4.07;2.50;;;;;;;0.81;65.74;101020.25;5082769;28;20095;-78
2022/03/14 03:00:03;;;;;;;2.67;2.05;;;;;;;0.70;65.73;101019.00;5082455;28;20052;-78
2022/03/14 03:02:36;;;;;;;3.70;2.38;;;;;;;0.69;66.10;101013.78;5082498;28;20240;-78
2022/03/14 03:05:07;;;;;;;3.10;2.33;;;;;;;0.64;66.28;101005.91;5082099;28;20052;-78
2022/03/14 03:07:39;;;;;;;3.88;2.75;;;;;;;0.52;66.39;101000.31;5082295;28;20057;-78
2022/03/14 03:10:11;;;;;;;4.38;2.70;;;;;;;0.67;66.63;101011.16;5082415;28;20051;-77
2022/03/14 03:12:42;;;;;;;3.78;2.83;;;;;;;0.48;66.08;100968.50;5082406;28;20107;-77
2022/03/14 03:15:14;;;;;;;6.70;3.15;;;;;;;0.77;66.68;100996.91;5082607;28;20051;-78
2022/03/14 03:17:45;;;;;;;11.77;5.82;;;;;;;0.78;65.96;100999.56;5082617;28;20045;-78
2022/03/14 03:20:15;;;;;;;6.40;3.40;;;;;;;0.74;65.81;100989.97;5082429;28;20087;-78
2022/03/14 03:22:48;;;;;;;6.93;3.35;;;;;;;0.61;66.03;100990.38;5082323;28;20247;-78
2022/03/14 03:25:19;;;;;;;6.68;3.17;;;;;;;0.72;66.32;100996.75;5082271;28;20074;-78
2022/03/14 03:27:50;;;;;;;6.40;2.65;;;;;;;0.82;66.11;100996.28;5082237;28;20050;-78
2022/03/14 03:30:25;;;;;;;4.20;2.42;;;;;;;0.73;65.93;100985.66;5082315;28;20102;-78
2022/03/14 03:32:55;;;;;;;4.93;2.92;;;;;;;0.80;66.21;100986.72;5082195;28;20051;-78
2022/03/14 03:35:26;;;;;;;12.75;6.30;;;;;;;0.78;66.03;100984.13;5082056;28;20348;-78
2022/03/14 03:38:01;;;;;;;9.38;4.28;;;;;;;0.72;66.16;100972.72;5082000;28;20108;-78
2022/03/14 03:40:32;;;;;;;9.55;4.90;;;;;;;0.85;66.41;100980.94;5082180;28;20044;-78
2022/03/14 03:43:02;;;;;;;5.50;3.58;;;;;;;0.99;66.18;100983.97;5082150;28;20243;-78
2022/03/14 03:45:33;;;;;;;10.07;5.60;;;;;;;1.07;66.04;100968.78;5082238;28;20247;-78
2022/03/14 03:48:04;;;;;;;9.82;5.10;;;;;;;1.09;65.58;100969.72;5082133;28;20083;-78
2022/03/14 03:50:37;;;;;;;11.88;4.97;;;;;;;1.05;66.33;100957.59;5082133;28;20056;-78
2022/03/14 03:53:09;;;;;;;10.45;5.78;;;;;;;1.16;65.93;100948.50;5081994;28;20045;-78
2022/03/14 03:55:40;;;;;;;15.40;5.60;;;;;;;1.09;65.30;100938.84;5082002;28;20055;-78
2022/03/14 03:58:11;;;;;;;7.95;4.28;;;;;;;1.08;65.77;100931.94;5081906;28;20044;-77
2022/03/14 04:00:41;;;;;;;6.78;3.60;;;;;;;1.16;66.01;100961.38;5081676;28;20044;-78
2022/03/14 04:03:12;;;;;;;5.30;3.22;;;;;;;1.03;65.49;100954.94;5081630;28;20052;-77
2022/03/14 04:05:43;;;;;;;7.78;4.28;;;;;;;0.89;66.20;100955.31;5081899;28;20044;-77
2022/03/14 04:08:15;;;;;;;6.13;3.80;;;;;;;0.94;66.44;100953.78;5081798;28;20423;-77
2022/03/14 04:10:54;;;;;;;8.10;4.30;;;;;;;1.04;66.45;100945.53;5081819;28;20263;-78
2022/03/14 04:13:29;;;;;;;3.72;2.90;;;;;;;0.92;65.77;100940.84;5081862;28;20483;-77
2022/03/14 04:16:00;;;;;;;5.40;3.05;;;;;;;0.83;65.78;100923.41;5081798;28;20058;-78
2022/03/14 04:18:30;;;;;;;4.72;3.05;;;;;;;0.72;65.95;100924.72;5085639;28;20320;-78
2022/03/14 04:21:01;;;;;;;3.30;2.58;;;;;;;0.71;66.54;100943.56;5085772;28;20057;-78
2022/03/14 04:23:34;;;;;;;4.97;3.00;;;;;;;0.64;67.04;100928.75;5085501;28;20120;-78
2022/03/14 04:26:05;;;;;;;6.85;2.70;;;;;;;0.70;66.60;100928.97;5085514;28;20088;-78
2022/03/14 04:28:36;;;;;;;3.80;2.58;;;;;;;0.80;66.51;100931.03;5085607;28;20086;-78
2022/03/14 04:31:07;;;;;;;4.38;2.53;;;;;;;0.86;65.72;100933.78;5085432;28;20124;-78
2022/03/14 04:33:38;;;;;;;4.82;2.38;;;;;;;0.80;65.68;100923.31;5085577;28;20044;-78
2022/03/14 04:36:09;;;;;;;6.22;2.83;;;;;;;0.79;66.04;100944.69;5085093;28;20068;-78
2022/03/14 04:38:42;;;;;;;4.55;2.88;;;;;;;0.76;66.23;100934.31;5085179;28;20596;-78
2022/03/14 04:41:14;;;;;;;4.15;3.00;;;;;;;0.72;66.28;100922.16;5085267;28;20059;-77
2022/03/14 04:43:44;;;;;;;4.88;2.95;;;;;;;0.80;66.74;100932.69;5085150;28;20236;-78
2022/03/14 04:46:15;;;;;;;4.35;3.28;;;;;;;0.92;66.52;100939.97;5085213;28;20056;-78
2022/03/14 04:48:46;;;;;;;4.70;3.38;;;;;;;1.10;66.33;100950.00;5085249;28;20116;-78
2022/03/14 04:51:17;;;;;;;5.07;2.60;;;;;;;1.16;65.02;100939.91;5085030;28;20090;-78
2022/03/14 04:53:49;;;;;;;3.28;2.60;;;;;;;1.25;64.81;100941.09;5084878;28;20079;-77
2022/03/14 04:56:20;;;;;;;4.47;2.70;;;;;;;1.18;65.27;100918.53;5084703;28;20048;-78
2022/03/14 04:58:51;;;;;;;5.53;2.35;;;;;;;1.28;64.61;100936.03;5084933;28;20465;-77
2022/03/14 05:01:23;;;;;;;3.33;2.35;;;;;;;1.32;64.89;100941.28;5084782;28;20087;-78
2022/03/14 05:03:54;;;;;;;3.78;2.20;;;;;;;1.11;65.23;100942.34;5084673;28;20115;-79
2022/03/14 05:06:25;;;;;;;3.92;2.28;;;;;;;0.82;66.41;100949.97;5084842;28;20364;-78
2022/03/14 05:08:57;;;;;;;3.13;2.50;;;;;;;0.49;67.06;100939.38;5084676;28;20059;-78
2022/03/14 05:11:28;;;;;;;2.97;2.10;;;;;;;0.13;67.92;100900.41;5084662;28;20090;-78
2022/03/14 05:13:59;;;;;;;4.13;2.45;;;;;;;0.30;67.28;100927.56;5084601;28;20055;-78
2022/03/14 05:16:29;;;;;;;5.03;2.97;;;;;;;0.50;67.50;100924.81;5084387;28;20271;-78
2022/03/14 05:19:00;;;;;;;4.75;2.42;;;;;;;0.71;66.95;100935.84;5084404;28;20040;-78
2022/03/14 05:21:33;;;;;;;3.70;2.10;;;;;;;0.92;66.58;100930.53;5084412;28;20112;-77
2022/03/14 05:24:07;;;;;;;4.68;2.38;;;;;;;1.22;66.34;100928.13;5084460;28;20048;-78
2022/03/14 05:26:40;;;;;;;4.45;3.10;;;;;;;1.31;64.05;100934.38;5084368;28;20111;-78
2022/03/14 05:29:12;;;;;;;6.38;3.45;;;;;;;0.96;63.92;100904.09;5084017;28;20112;-78
2022/03/14 05:31:43;;;;;;;5.28;3.15;;;;;;;1.12;64.73;100928.63;5084252;28;20045;-78
2022/03/14 05:34:16;;;;;;;4.00;2.78;;;;;;;1.23;64.90;100921.28;5096619;28;20335;-78
2022/03/14 05:36:47;;;;;;;4.88;3.20;;;;;;;1.21;64.31;100923.78;5081655;28;20071;-80
2022/03/14 05:39:19;;;;;;;5.50;3.33;;;;;;;1.24;64.36;100926.44;5084963;28;20060;-79
2022/03/14 05:41:50;;;;;;;4.65;2.97;;;;;;;1.16;64.49;100920.19;5089582;28;20077;-79
2022/03/14 05:44:21;;;;;;;5.55;2.63;;;;;;;1.13;64.57;100920.09;5089548;28;20116;-79
2022/03/14 05:46:52;;;;;;;5.50;2.70;;;;;;;1.10;64.87;100922.59;5090369;28;20133;-80
2022/03/14 05:49:23;;;;;;;2.47;1.95;;;;;;;1.05;64.38;100913.84;5101232;28;20052;-79
2022/03/14 05:51:53;;;;;;;3.67;2.55;;;;;;;1.20;65.05;100927.19;5093691;28;20040;-79
2022/03/14 05:54:26;;;;;;;3.25;2.47;;;;;;;1.01;64.42;100896.53;5089448;28;20078;-79
2022/03/14 05:56:56;;;;;;;3.67;2.38;;;;;;;1.21;64.68;100938.38;5086927;28;20041;-80
2022/03/14 05:59:27;;;;;;;4.00;2.55;;;;;;;1.12;64.60;100944.06;5088266;28;20052;-80
2022/03/14 06:01:58;;;;;;;3.90;2.10;;;;;;;1.07;65.04;100932.75;5089600;28;20336;-79
2022/03/14 06:04:29;;;;;;;3.78;2.50;;;;;;;1.01;64.15;100935.13;5092477;28;20052;-80
2022/03/14 06:07:00;;;;;;;2.97;2.28;;;;;;;0.90;64.56;100926.16;5096058;28;20075;-81
2022/03/14 06:09:32;;;;;;;3.45;2.35;;;;;;;0.75;65.41;100927.44;5097302;28;20051;-80
2022/03/14 06:12:03;;;;;;;2.83;1.80;;;;;;;0.77;65.12;100946.34;5100694;28;20397;-80
2022/03/14 06:14:34;;;;;;;3.60;2.28;;;;;;;0.66;65.48;100937.41;5098085;28;20080;-80
2022/03/14 06:17:05;;;;;;;3.65;2.45;;;;;;;0.16;65.31;100847.41;5098131;28;20040;-82
2022/03/14 06:19:38;;;;;;;2.65;2.10;;;;;;;0.77;64.87;100941.19;5092994;28;20201;-80
2022/03/14 06:22:09;;;;;;;3.40;2.30;;;;;;;0.75;64.61;100930.00;5100168;28;20088;-83
2022/03/14 06:24:47;;;;;;;4.13;2.00;;;;;;;0.76;64.70;100924.03;5090641;28;20051;-81
2022/03/14 06:27:19;;;;;;;3.08;2.20;;;;;;;0.73;64.41;100923.94;5095424;28;20094;-81
2022/03/14 06:29:54;;;;;;;3.85;2.10;;;;;;;0.76;64.65;100898.28;5098278;28;20062;-82
2022/03/14 06:32:25;;;;;;;3.70;1.95;;;;;;;1.27;64.25;100934.28;5093414;28;20078;-83
2022/03/14 06:34:56;;;;;;;4.15;2.28;;;;;;;1.25;63.51;100935.94;5100966;28;20059;-77
2022/03/14 06:37:27;;;;;;;3.38;2.28;;;;;;;1.29;63.85;100935.19;5089393;28;20360;-82
2022/03/14 06:40:05;;;;;;;4.15;2.30;;;;;;;0.94;63.92;100897.16;5083049;28;20107;-86
2022/03/14 06:42:41;;;;;;;4.25;2.47;;;;;;;1.28;64.48;100945.47;5098023;28;20079;-87
2022/03/14 06:45:12;;;;;;;4.93;2.28;;;;;;;1.41;63.74;100946.72;5086586;28;20112;-92
2022/03/14 06:47:43;;;;;;;3.35;2.25;;;;;;;1.48;63.84;100944.38;5083419;28;20087;-88
2022/03/14 06:50:17;;;;;;;6.93;3.10;;;;;;;1.58;64.20;100935.25;5090084;28;20059;-90
2022/03/14 06:52:51;;;;;;;4.93;2.45;;;;;;;0.96;63.11;100831.19;5102541;28;20052;-88
2022/03/14 06:55:35;;;;;;;3.08;2.65;;;;;;;1.71;62.86;100960.56;5093937;28;20075;-91
2022/03/14 06:58:20;;;;;;;3.95;2.00;;;;;;;1.51;63.46;100951.34;5082988;28;20044;-81
2022/03/14 07:00:51;;;;;;;3.92;2.65;;;;;;;1.35;63.58;100962.88;5090578;28;20072;-89
2022/03/14 07:03:22;;;;;;;5.70;2.60;;;;;;;1.12;63.83;100943.19;5085081;28;20218;-85
2022/03/14 07:05:53;;;;;;;4.10;2.10;;;;;;;1.15;64.24;100974.19;5085022;28;20048;-88
2022/03/14 07:08:25;;;;;;;4.10;2.80;;;;;;;1.08;64.55;100978.28;5101205;28;20040;-85
2022/03/14 07:10:57;;;;;;;5.22;2.45;;;;;;;1.04;65.04;100991.84;5096392;28;20074;-85
2022/03/14 07:13:28;;;;;;;3.75;2.42;;;;;;;1.00;64.69;100989.97;5108519;28;20092;-83
2022/03/14 07:15:59;;;;;;;7.25;2.30;;;;;;;0.64;65.47;100954.47;5103472;28;20044;-82
2022/03/14 07:18:30;;;;;;;2.95;2.20;;;;;;;0.74;65.89;101002.84;5117144;28;20028;-80
2022/03/14 07:21:01;;;;;;;4.22;2.03;;;;;;;0.55;66.81;101001.31;5105043;28;20059;-80
2022/03/14 07:23:32;;;;;;;2.42;2.00;;;;;;;0.41;67.41;101008.53;5112947;28;20088;-78
2022/03/14 07:26:04;;;;;;;3.78;2.05;;;;;;;0.06;67.94;100948.09;5118847;28;20028;-78
2022/03/14 07:28:34;;;;;;;4.30;2.80;;;;;;;0.23;67.69;101000.16;5116452;28;20024;-79
2022/03/14 07:31:06;;;;;;;8.30;2.97;;;;;;;0.08;68.11;100991.88;5108638;28;20024;-79
2022/03/14 07:33:37;;;;;;;3.58;2.90;;;;;;;-0.27;67.78;100999.09;5109994;28;20052;-79
2022/03/14 07:36:08;;;;;;;4.72;2.97;;;;;;;-0.77;68.99;100969.72;5107007;28;20092;-78
2022/03/14 07:38:38;;;;;;;5.75;2.83;;;;;;;-0.74;70.05;101005.75;5102444;28;20028;-76
2022/03/14 07:41:11;;;;;;;5.25;2.60;;;;;;;-1.03;70.48;101002.84;5105915;28;20059;-78
2022/03/14 07:43:42;;;;;;;3.42;2.67;;;;;;;-1.19;70.76;101016.69;5100590;28;20072;-84
2022/03/14 07:46:13;;;;;;;3.13;2.50;;;;;;;-1.31;71.07;101011.91;5096259;28;20044;-78
2022/03/14 07:48:44;;;;;;;2.90;2.38;;;;;;;-1.53;71.58;101009.22;5090038;28;20059;-81
2022/03/14 07:51:14;;;;;;;9.82;4.50;;;;;;;-1.96;71.79;100963.75;5101780;28;20052;-81
2022/03/14 07:53:45;;;;;;;22.50;8.40;;;;;;;-1.78;72.20;101023.47;5104517;28;20072;-80
2022/03/14 07:56:20;;;;;;;32.55;11.90;;;;;;;-1.87;72.17;101043.56;5091252;28;20052;-80
2022/03/14 07:58:51;;;;;;;9.63;4.82;;;;;;;-2.04;72.79;101049.59;5088866;28;20336;-78
2022/03/14 08:01:22;;;;;;;12.88;6.22;;;;;;;-2.22;73.29;101055.59;5106096;28;20044;-78
2022/03/14 08:03:56;;;;;;;11.13;4.25;;;;;;;-2.30;74.10;101066.25;5092645;28;20052;-78
2022/03/14 08:06:27;;;;;;;8.63;4.07;;;;;;;-2.32;73.90;101061.09;5104452;28;20046;-78
2022/03/14 08:08:58;;;;;;;4.53;3.10;;;;;;;-2.41;74.09;101068.31;5096697;28;20324;-78
2022/03/14 08:11:31;;;;;;;5.03;2.90;;;;;;;-2.61;74.33;101064.78;5085515;28;20051;-78
2022/03/14 08:14:01;;;;;;;5.82;3.03;;;;;;;-2.75;75.29;101066.63;5089931;28;20052;-79
2022/03/14 08:16:32;;;;;;;5.22;2.83;;;;;;;-2.89;75.62;101059.97;5099631;28;20116;-79
2022/03/14 08:19:03;;;;;;;3.60;2.45;;;;;;;-3.09;76.05;101044.47;5092118;28;20110;-78
2022/03/14 08:21:34;;;;;;;4.82;3.00;;;;;;;-3.07;76.62;101063.34;5095339;28;20294;-78
2022/03/14 08:24:05;;;;;;;5.63;3.15;;;;;;;-3.11;76.79;101056.31;5098296;28;20059;-78
2022/03/14 08:26:38;;;;;;;5.43;3.08;;;;;;;-3.12;77.09;101063.88;5091348;28;20112;-78
2022/03/14 08:29:09;;;;;;;7.13;3.63;;;;;;;-3.20;77.29;101060.06;5087934;28;20099;-78
2022/03/14 08:31:39;;;;;;;7.25;3.92;;;;;;;-3.49;77.98;101037.31;5098557;28;20044;-80
2022/03/14 08:34:10;;;;;;;6.32;3.83;;;;;;;-3.58;78.04;101041.94;5098365;28;20044;-79
2022/03/14 08:36:41;;;;;;;7.68;4.05;;;;;;;-3.52;78.33;101051.59;5092799;28;20111;-79
2022/03/14 08:39:12;;;;;;;6.57;3.70;;;;;;;-3.54;78.54;101038.75;5100361;28;20048;-77
2022/03/14 08:41:44;;;;;;;6.20;3.65;;;;;;;-3.64;79.07;101040.72;5090793;28;20516;-79
2022/03/14 08:44:15;;;;;;;7.53;3.83;;;;;;;-3.68;79.52;101029.47;5090201;28;20048;-79
2022/03/14 08:46:46;;;;;;;5.15;3.55;;;;;;;-3.64;79.39;101030.50;5100596;28;20344;-78
2022/03/14 08:49:17;;;;;;;5.95;3.65;;;;;;;-3.74;79.45;101013.84;5085583;28;20049;-78
2022/03/14 08:51:47;;;;;;;6.63;4.05;;;;;;;-3.55;79.74;101036.97;5084518;28;20335;-80
2022/03/14 08:54:18;;;;;;;6.97;3.80;;;;;;;-3.63;79.49;101038.25;5084588;28;20052;-80
2022/03/14 08:56:50;;;;;;;5.68;3.38;;;;;;;-3.69;79.55;101043.03;5085081;28;20163;-79
2022/03/14 08:59:22;;;;;;;5.43;3.72;;;;;;;-3.76;79.88;101041.81;5089286;28;20115;-79
2022/03/14 09:01:53;;;;;;;5.95;3.60;;;;;;;-3.81;79.66;101058.59;5088415;28;20289;-79
2022/03/14 09:04:24;;;;;;;8.23;3.95;;;;;;;-3.79;79.72;101056.13;5089361;28;20068;-80
2022/03/14 09:06:55;;;;;;;5.90;3.35;;;;;;;-3.88;79.82;101056.50;5106449;28;20098;-80
2022/03/14 09:09:26;;;;;;;7.00;3.80;;;;;;;-3.85;80.12;101060.88;5095149;28;20283;-80
2022/03/14 09:11:58;;;;;;;5.90;3.53;;;;;;;-3.82;80.19;101069.59;5110099;28;20050;-80
2022/03/14 09:14:30;;;;;;;7.28;3.53;;;;;;;-3.74;80.29;101062.34;5101213;28;20047;-80
2022/03/14 09:17:00;;;;;;;8.00;3.90;;;;;;;-3.74;80.19;101059.81;5105205;28;20032;-80
2022/03/14 09:19:32;;;;;;;7.72;4.15;;;;;;;-3.74;80.01;101045.34;5115264;28;20087;-80
2022/03/14 09:22:03;;;;;;;10.27;5.45;;;;;;;-3.55;79.80;101087.19;5102231;28;20040;-79
2022/03/14 09:24:37;;;;;;;13.93;5.35;;;;;;;-3.63;79.66;101078.25;5103189;28;20091;-77
2022/03/14 09:27:10;;;;;;;9.55;4.80;;;;;;;-3.64;79.78;101079.94;5105202;28;20028;-80
2022/03/14 09:29:40;;;;;;;7.32;3.78;;;;;;;-3.77;79.47;101082.59;5113524;28;20092;-81
2022/03/14 09:32:13;;;;;;;7.35;3.45;;;;;;;-3.80;79.84;101090.97;5108881;28;20055;-81
2022/03/14 09:34:44;;;;;;;8.30;4.00;;;;;;;-3.85;79.52;101096.63;5100444;28;20103;-80
2022/03/14 09:37:15;;;;;;;6.30;3.78;;;;;;;-4.00;79.87;101082.22;5115312;28;20088;-80
2022/03/14 09:39:45;;;;;;;6.80;3.40;;;;;;;-3.94;80.02;101097.88;5091625;28;20332;-80
2022/03/14 09:42:21;;;;;;;7.57;3.72;;;;;;;-4.12;80.27;101066.22;5089562;28;20078;-80
2022/03/14 09:44:54;;;;;;;4.57;2.83;;;;;;;-4.08;80.05;101080.91;5094038;28;20062;-80
2022/03/14 09:47:30;;;;;;;7.03;3.47;;;;;;;-4.21;80.02;101070.84;5095968;28;20233;-80
2022/03/14 09:50:03;;;;;;;2.97;2.30;;;;;;;-4.44;80.23;101042.34;5096073;28;20324;-81
2022/03/14 09:52:37;;;;;;;7.05;3.70;;;;;;;-4.37;80.58;101053.75;5093568;28;20048;-80
2022/03/14 09:55:10;;;;;;;27.33;15.55;;;;;;;-4.37;80.66;101044.47;5095257;28;20044;-80
2022/03/14 09:57:42;;;;;;;7.55;5.63;;;;;;;-4.42;81.16;101030.56;5103586;28;20083;-80
2022/03/14 10:00:14;;;;;;;54.45;18.05;;;;;;;-4.42;81.41;101042.41;5095609;28;20040;-79
2022/03/14 10:02:46;;;;;;;72.57;24.27;;;;;;;-4.38;81.25;101058.00;5099875;28;20122;-79
2022/03/14 10:05:19;;;;;;;9.00;4.25;;;;;;;-4.43;81.25;101055.97;5103126;28;20087;-80
2022/03/14 10:07:50;;;;;;;6.55;3.25;;;;;;;-4.52;80.90;101033.38;5093938;28;20079;-80
2022/03/14 10:10:21;;;;;;;6.25;3.58;;;;;;;-4.29;80.84;101072.97;5096291;28;20040;-80
2022/03/14 10:12:57;;;;;;;7.32;3.67;;;;;;;-4.25;80.68;101068.91;5096273;28;20050;-80
2022/03/14 10:15:28;;;;;;;5.35;3.40;;;;;;;-4.24;80.65;101070.63;5096656;28;20083;-80
2022/03/14 10:17:59;;;;;;;9.00;3.78;;;;;;;-4.16;80.98;101069.41;5093601;28;20044;-80
2022/03/14 10:20:30;;;;;;;9.43;3.50;;;;;;;-4.28;81.16;101040.66;5101327;28;20305;-80
2022/03/14 10:23:01;;;;;;;7.05;4.10;;;;;;;-4.20;80.76;101067.47;5094558;28;20055;-80
2022/03/14 10:25:31;;;;;;;7.07;4.00;;;;;;;-4.20;80.81;101072.56;5089501;28;20055;-80
2022/03/14 10:28:04;;;;;;;19.50;7.72;;;;;;;-4.14;80.59;101071.25;5090815;28;20067;-82
2022/03/14 10:30:36;;;;;;;30.63;12.65;;;;;;;-4.11;80.39;101088.41;5098864;28;20052;-79
2022/03/14 10:33:14;;;;;;;34.35;13.90;;;;;;;-4.13;79.53;101079.78;5096504;28;20048;-81
2022/03/14 10:35:47;;;;;;;33.88;13.77;;;;;;;-4.36;79.26;101041.09;5094175;28;20086;-80
2022/03/14 10:38:17;;;;;;;19.45;8.93;;;;;;;-4.15;79.37;101086.47;5089969;28;20281;-80
2022/03/14 10:40:48;;;;;;;27.95;10.98;;;;;;;-4.14;79.30;101083.16;5090292;28;20048;-82
2022/03/14 10:43:32;;;;;;;28.80;12.10;;;;;;;-4.41;78.88;101031.44;5101722;28;20358;-80
2022/03/14 10:46:05;;;;;;;24.20;10.35;;;;;;;-4.32;79.04;101056.59;5088750;28;20079;-80
2022/03/14 10:48:40;;;;;;;25.08;9.80;;;;;;;-4.46;78.69;101043.94;5087770;28;20090;-82
2022/03/14 10:51:12;;;;;;;19.88;8.40;;;;;;;-4.30;78.92;101071.19;5088444;28;20052;-79
2022/03/14 10:53:45;;;;;;;18.45;7.88;;;;;;;-4.61;78.75;101027.78;5087538;28;20044;-81
2022/03/14 10:56:17;;;;;;;16.95;7.15;;;;;;;-4.48;79.02;101047.19;5085782;28;20067;-81
2022/03/14 10:58:49;;;;;;;16.65;7.57;;;;;;;-4.45;79.13;101058.44;5082290;28;20083;-82
2022/03/14 11:01:21;;;;;;;21.35;9.77;;;;;;;-4.59;79.27;101067.00;5091436;28;20048;-83
2022/03/14 11:03:52;;;;;;;26.75;10.00;;;;;;;-4.68;79.01;101084.31;5098356;28;20050;-82
2022/03/14 11:06:23;;;;;;;26.50;12.07;;;;;;;-4.78;78.92;101091.41;5096503;28;20307;-82
2022/03/14 11:08:56;;;;;;;24.27;10.93;;;;;;;-4.87;78.98;101093.41;5096422;28;20072;-81
2022/03/14 11:11:30;;;;;;;21.67;10.65;;;;;;;-4.85;78.99;101094.38;5088182;28;20041;-81
2022/03/14 11:14:02;;;;;;;29.88;12.30;;;;;;;-4.81;79.21;101091.25;5102023;28;20052;-80
2022/03/14 11:16:34;;;;;;;46.13;18.58;;;;;;;-4.64;79.40;101098.97;5085647;28;20356;-78
2022/03/14 11:19:05;;;;;;;53.40;18.38;;;;;;;-4.62;79.41;101097.41;5095006;28;20044;-78
2022/03/14 11:21:36;;;;;;;24.08;9.68;;;;;;;-4.71;79.01;101102.00;5093734;28;20107;-77
2022/03/14 11:24:08;;;;;;;19.80;8.77;;;;;;;-4.75;78.75;101106.00;5081458;28;20049;-78
2022/03/14 11:26:46;;;;;;;16.60;7.05;;;;;;;-4.72;78.96;101110.41;5097967;28;20110;-77
2022/03/14 11:29:19;;;;;;;16.17;7.78;;;;;;;-4.60;79.53;101114.56;5089917;28;20360;-77
2022/03/14 11:31:49;;;;;;;20.25;9.18;;;;;;;-4.54;79.42;101103.84;5082296;28;20103;-77
2022/03/14 11:34:24;;;;;;;21.65;8.77;;;;;;;-4.81;78.92;101075.94;5098653;28;20048;-78
2022/03/14 11:36:57;;;;;;;152.80;60.28;;;;;;;-4.84;79.32;101101.28;5098734;28;20040;-78
2022/03/14 11:39:29;;;;;;;51.67;20.90;;;;;;;-5.22;79.54;101061.66;5098878;28;20075;-78
2022/03/14 11:42:00;;;;;;;55.45;19.98;;;;;;;-5.03;80.13;101094.19;5088983;28;20071;-77
2022/03/14 11:44:33;;;;;;;23.75;10.63;;;;;;;-4.93;80.82;101095.63;5054923;28;20061;-78
2022/03/14 11:47:05;;;;;;;17.40;8.10;;;;;;;-4.78;81.57;101076.13;5108774;28;20055;-77